sensor_id;sensor_type;location;lat;lon;timestamp;P1;durP1;ratioP1;P2;durP2;ratioP2
75520;SDS011;64102;48.628;9.002;2023-04-15T00:01:23;1.65;;;0.10;;
75520;SDS011;64102;48.628;9.002;2023-04-15T00:03:52;5.65;;;0.35;;
75520;SDS011;64102;48.628;9.002;2023-04-15T00:06:18;3.40;;;0.15;;
75520;SDS011;64102;48.628;9.002;2023-04-15T00:08:47;4.63;;;0.13;;
75520;SDS011;64102;48.628;9.002;2023-04-15T00:11:14;4.40;;;0.25;;
75520;SDS011;64102;48.628;9.002;2023-04-15T00:13:40;3.35;;;0.10;;
75520;SDS011;64102;48.628;9.002;2023-04-15T00:16:06;2.45;;;0.10;;
75520;SDS011;64102;48.628;9.002;2023-04-15T00:18:33;3.05;;;0.10;;
75520;SDS011;64102;48.628;9.002;2023-04-15T00:20:58;2.17;;;0.10;;
75520;SDS011;64102;48.628;9.002;2023-04-15T00:23:24;3.15;;;0.17;;
75520;SDS011;64102;48.628;9.002;2023-04-15T00:25:50;2.13;;;0.10;;
75520;SDS011;64102;48.628;9.002;2023-04-15T00:28:16;3.40;;;0.10;;
75520;SDS011;64102;48.628;9.002;2023-04-15T00:30:41;4.97;;;0.10;;
75520;SDS011;64102;48.628;9.002;2023-04-15T00:33:07;2.08;;;0.10;;
75520;SDS011;64102;48.628;9.002;2023-04-15T00:35:32;2.57;;;0.10;;
75520;SDS011;64102;48.628;9.002;2023-04-15T00:37:58;2.80;;;0.10;;
75520;SDS011;64102;48.628;9.002;2023-04-15T00:40:24;4.75;;;0.20;;
75520;SDS011;64102;48.628;9.002;2023-04-15T00:42:50;1.98;;;0.13;;
75520;SDS011;64102;48.628;9.002;2023-04-15T00:45:16;1.38;;;0.00;;
75520;SDS011;64102;48.628;9.002;2023-04-15T00:47:42;2.03;;;0.15;;
75520;SDS011;64102;48.628;9.002;2023-04-15T00:50:08;1.95;;;0.00;;
75520;SDS011;64102;48.628;9.002;2023-04-15T00:52:33;1.30;;;0.10;;
75520;SDS011;64102;48.628;9.002;2023-04-15T00:54:59;2.50;;;0.10;;
75520;SDS011;64102;48.628;9.002;2023-04-15T00:57:25;1.17;;;0.10;;
75520;SDS011;64102;48.628;9.002;2023-04-15T00:59:53;1.95;;;0.00;;
75520;SDS011;64102;48.628;9.002;2023-04-15T01:02:21;3.38;;;0.10;;
75520;SDS011;64102;48.628;9.002;2023-04-15T01:04:46;1.45;;;0.08;;
75520;SDS011;64102;48.628;9.002;2023-04-15T01:07:12;1.70;;;0.03;;
75520;SDS011;64102;48.628;9.002;2023-04-15T01:09:37;2.38;;;0.10;;
75520;SDS011;64102;48.628;9.002;2023-04-15T01:12:03;3.65;;;0.10;;
75520;SDS011;64102;48.628;9.002;2023-04-15T01:14:29;2.08;;;0.10;;
75520;SDS011;64102;48.628;9.002;2023-04-15T01:16:55;3.30;;;0.10;;
75520;SDS011;64102;48.628;9.002;2023-04-15T01:19:21;4.28;;;0.10;;
75520;SDS011;64102;48.628;9.002;2023-04-15T01:21:46;1.07;;;0.00;;
75520;SDS011;64102;48.628;9.002;2023-04-15T01:24:12;2.00;;;0.10;;
75520;SDS011;64102;48.628;9.002;2023-04-15T01:26:42;2.63;;;0.10;;
75520;SDS011;64102;48.628;9.002;2023-04-15T01:29:07;1.52;;;0.05;;
75520;SDS011;64102;48.628;9.002;2023-04-15T01:31:33;2.78;;;0.10;;
75520;SDS011;64102;48.628;9.002;2023-04-15T01:33:58;3.83;;;0.10;;
75520;SDS011;64102;48.628;9.002;2023-04-15T01:36:24;1.83;;;0.03;;
75520;SDS011;64102;48.628;9.002;2023-04-15T01:38:50;1.70;;;0.10;;
75520;SDS011;64102;48.628;9.002;2023-04-15T01:41:15;1.80;;;0.10;;
75520;SDS011;64102;48.628;9.002;2023-04-15T01:43:41;5.40;;;0.20;;
75520;SDS011;64102;48.628;9.002;2023-04-15T01:46:06;1.95;;;0.10;;
75520;SDS011;64102;48.628;9.002;2023-04-15T01:48:32;2.17;;;0.10;;
75520;SDS011;64102;48.628;9.002;2023-04-15T01:50:58;1.67;;;0.00;;
75520;SDS011;64102;48.628;9.002;2023-04-15T01:53:23;3.65;;;0.20;;
75520;SDS011;64102;48.628;9.002;2023-04-15T01:55:50;3.03;;;0.08;;
75520;SDS011;64102;48.628;9.002;2023-04-15T01:58:16;2.13;;;0.10;;
75520;SDS011;64102;48.628;9.002;2023-04-15T02:00:42;2.38;;;0.10;;
75520;SDS011;64102;48.628;9.002;2023-04-15T02:03:07;3.03;;;0.10;;
75520;SDS011;64102;48.628;9.002;2023-04-15T02:05:33;2.55;;;0.10;;
75520;SDS011;64102;48.628;9.002;2023-04-15T02:07:59;3.13;;;0.10;;
75520;SDS011;64102;48.628;9.002;2023-04-15T02:10:25;3.85;;;0.20;;
75520;SDS011;64102;48.628;9.002;2023-04-15T02:12:50;3.50;;;0.20;;
75520;SDS011;64102;48.628;9.002;2023-04-15T02:15:15;2.50;;;0.10;;
75520;SDS011;64102;48.628;9.002;2023-04-15T02:17:41;4.50;;;0.10;;
75520;SDS011;64102;48.628;9.002;2023-04-15T02:20:09;3.03;;;0.20;;
75520;SDS011;64102;48.628;9.002;2023-04-15T02:22:35;5.47;;;0.20;;
75520;SDS011;64102;48.628;9.002;2023-04-15T02:25:01;6.80;;;0.35;;
75520;SDS011;64102;48.628;9.002;2023-04-15T02:27:27;3.70;;;0.13;;
75520;SDS011;64102;48.628;9.002;2023-04-15T02:29:53;2.60;;;0.10;;
75520;SDS011;64102;48.628;9.002;2023-04-15T02:32:18;2.42;;;0.13;;
75520;SDS011;64102;48.628;9.002;2023-04-15T02:34:44;2.58;;;0.10;;
75520;SDS011;64102;48.628;9.002;2023-04-15T02:37:11;1.38;;;0.05;;
75520;SDS011;64102;48.628;9.002;2023-04-15T02:39:37;2.08;;;0.10;;
75520;SDS011;64102;48.628;9.002;2023-04-15T02:42:02;2.58;;;0.10;;
75520;SDS011;64102;48.628;9.002;2023-04-15T02:44:29;3.65;;;0.22;;
75520;SDS011;64102;48.628;9.002;2023-04-15T02:46:55;3.00;;;0.10;;
75520;SDS011;64102;48.628;9.002;2023-04-15T02:49:20;4.78;;;0.10;;
75520;SDS011;64102;48.628;9.002;2023-04-15T02:51:46;6.68;;;0.20;;
75520;SDS011;64102;48.628;9.002;2023-04-15T02:54:14;2.45;;;0.10;;
75520;SDS011;64102;48.628;9.002;2023-04-15T02:56:40;5.53;;;0.20;;
75520;SDS011;64102;48.628;9.002;2023-04-15T02:59:06;2.60;;;0.15;;
75520;SDS011;64102;48.628;9.002;2023-04-15T03:01:31;2.17;;;0.10;;
75520;SDS011;64102;48.628;9.002;2023-04-15T03:03:57;2.13;;;0.10;;
75520;SDS011;64102;48.628;9.002;2023-04-15T03:06:22;2.22;;;0.20;;
75520;SDS011;64102;48.628;9.002;2023-04-15T03:08:48;2.55;;;0.10;;
75520;SDS011;64102;48.628;9.002;2023-04-15T03:11:14;1.45;;;0.10;;
75520;SDS011;64102;48.628;9.002;2023-04-15T03:13:40;4.55;;;0.20;;
75520;SDS011;64102;48.628;9.002;2023-04-15T03:16:07;3.95;;;0.20;;
75520;SDS011;64102;48.628;9.002;2023-04-15T03:18:33;2.08;;;0.10;;
75520;SDS011;64102;48.628;9.002;2023-04-15T03:20:58;3.08;;;0.20;;
75520;SDS011;64102;48.628;9.002;2023-04-15T03:23:23;3.20;;;0.20;;
75520;SDS011;64102;48.628;9.002;2023-04-15T03:25:49;3.63;;;0.20;;
75520;SDS011;64102;48.628;9.002;2023-04-15T03:28:14;4.13;;;0.20;;
75520;SDS011;64102;48.628;9.002;2023-04-15T03:30:40;3.40;;;0.10;;
75520;SDS011;64102;48.628;9.002;2023-04-15T03:33:06;4.05;;;0.10;;
75520;SDS011;64102;48.628;9.002;2023-04-15T03:35:32;3.33;;;0.20;;
75520;SDS011;64102;48.628;9.002;2023-04-15T03:37:58;2.80;;;0.10;;
75520;SDS011;64102;48.628;9.002;2023-04-15T03:40:23;2.77;;;0.10;;
75520;SDS011;64102;48.628;9.002;2023-04-15T03:42:49;5.25;;;0.10;;
75520;SDS011;64102;48.628;9.002;2023-04-15T03:45:14;5.35;;;0.30;;
75520;SDS011;64102;48.628;9.002;2023-04-15T03:47:40;2.50;;;0.20;;
75520;SDS011;64102;48.628;9.002;2023-04-15T03:50:06;3.92;;;0.10;;
75520;SDS011;64102;48.628;9.002;2023-04-15T03:52:32;1.77;;;0.10;;
75520;SDS011;64102;48.628;9.002;2023-04-15T03:54:57;6.13;;;0.38;;
75520;SDS011;64102;48.628;9.002;2023-04-15T03:57:23;4.07;;;0.30;;
75520;SDS011;64102;48.628;9.002;2023-04-15T03:59:48;4.70;;;0.20;;
75520;SDS011;64102;48.628;9.002;2023-04-15T04:02:13;4.40;;;0.20;;
75520;SDS011;64102;48.628;9.002;2023-04-15T04:04:38;5.10;;;0.30;;
75520;SDS011;64102;48.628;9.002;2023-04-15T04:07:04;2.30;;;0.10;;
75520;SDS011;64102;48.628;9.002;2023-04-15T04:09:29;3.57;;;0.13;;
75520;SDS011;64102;48.628;9.002;2023-04-15T04:11:55;3.15;;;0.20;;
75520;SDS011;64102;48.628;9.002;2023-04-15T04:14:21;4.78;;;0.30;;
75520;SDS011;64102;48.628;9.002;2023-04-15T04:16:53;3.60;;;0.20;;
75520;SDS011;64102;48.628;9.002;2023-04-15T04:19:18;3.47;;;0.30;;
75520;SDS011;64102;48.628;9.002;2023-04-15T04:21:44;3.35;;;0.30;;
75520;SDS011;64102;48.628;9.002;2023-04-15T04:24:09;3.83;;;0.20;;
75520;SDS011;64102;48.628;9.002;2023-04-15T04:26:35;6.85;;;0.50;;
75520;SDS011;64102;48.628;9.002;2023-04-15T04:29:00;7.43;;;0.50;;
75520;SDS011;64102;48.628;9.002;2023-04-15T04:31:25;6.27;;;0.50;;
75520;SDS011;64102;48.628;9.002;2023-04-15T04:33:51;8.23;;;0.82;;
75520;SDS011;64102;48.628;9.002;2023-04-15T04:36:16;9.53;;;0.87;;
75520;SDS011;64102;48.628;9.002;2023-04-15T04:38:41;6.77;;;0.80;;
75520;SDS011;64102;48.628;9.002;2023-04-15T04:41:07;10.25;;;1.38;;
75520;SDS011;64102;48.628;9.002;2023-04-15T04:43:32;5.17;;;0.97;;
75520;SDS011;64102;48.628;9.002;2023-04-15T04:45:57;4.27;;;0.60;;
75520;SDS011;64102;48.628;9.002;2023-04-15T04:48:23;4.67;;;0.30;;
75520;SDS011;64102;48.628;9.002;2023-04-15T04:50:48;2.77;;;0.20;;
75520;SDS011;64102;48.628;9.002;2023-04-15T04:53:13;4.45;;;0.40;;
75520;SDS011;64102;48.628;9.002;2023-04-15T04:55:39;3.88;;;0.20;;
75520;SDS011;64102;48.628;9.002;2023-04-15T04:58:04;4.20;;;0.50;;
75520;SDS011;64102;48.628;9.002;2023-04-15T05:00:30;3.65;;;0.30;;
75520;SDS011;64102;48.628;9.002;2023-04-15T05:02:55;3.35;;;0.20;;
75520;SDS011;64102;48.628;9.002;2023-04-15T05:05:20;4.57;;;0.30;;
75520;SDS011;64102;48.628;9.002;2023-04-15T05:07:46;4.73;;;0.20;;
75520;SDS011;64102;48.628;9.002;2023-04-15T05:10:13;3.80;;;0.30;;
75520;SDS011;64102;48.628;9.002;2023-04-15T05:12:39;4.75;;;0.30;;
75520;SDS011;64102;48.628;9.002;2023-04-15T05:15:05;4.17;;;0.30;;
75520;SDS011;64102;48.628;9.002;2023-04-15T05:17:30;5.93;;;0.63;;
75520;SDS011;64102;48.628;9.002;2023-04-15T05:19:57;3.85;;;0.13;;
75520;SDS011;64102;48.628;9.002;2023-04-15T05:22:22;9.43;;;0.43;;
75520;SDS011;64102;48.628;9.002;2023-04-15T05:24:49;6.50;;;0.25;;
75520;SDS011;64102;48.628;9.002;2023-04-15T05:27:15;4.85;;;0.20;;
75520;SDS011;64102;48.628;9.002;2023-04-15T05:29:40;4.23;;;0.30;;
75520;SDS011;64102;48.628;9.002;2023-04-15T05:32:05;6.53;;;0.83;;
75520;SDS011;64102;48.628;9.002;2023-04-15T05:34:31;8.07;;;0.38;;
75520;SDS011;64102;48.628;9.002;2023-04-15T05:36:56;4.23;;;0.40;;
75520;SDS011;64102;48.628;9.002;2023-04-15T05:39:22;5.20;;;0.38;;
75520;SDS011;64102;48.628;9.002;2023-04-15T05:41:47;6.80;;;0.70;;
75520;SDS011;64102;48.628;9.002;2023-04-15T05:44:12;3.57;;;0.30;;
75520;SDS011;64102;48.628;9.002;2023-04-15T05:46:37;5.33;;;0.50;;
75520;SDS011;64102;48.628;9.002;2023-04-15T05:49:03;4.73;;;0.40;;
75520;SDS011;64102;48.628;9.002;2023-04-15T05:51:28;6.33;;;0.47;;
75520;SDS011;64102;48.628;9.002;2023-04-15T05:53:54;5.20;;;0.40;;
75520;SDS011;64102;48.628;9.002;2023-04-15T05:56:19;4.88;;;0.40;;
75520;SDS011;64102;48.628;9.002;2023-04-15T05:58:45;4.47;;;0.35;;
75520;SDS011;64102;48.628;9.002;2023-04-15T06:01:10;6.60;;;0.40;;
75520;SDS011;64102;48.628;9.002;2023-04-15T06:03:36;3.10;;;0.28;;
75520;SDS011;64102;48.628;9.002;2023-04-15T06:06:02;4.60;;;0.30;;
75520;SDS011;64102;48.628;9.002;2023-04-15T06:08:27;5.40;;;0.43;;
75520;SDS011;64102;48.628;9.002;2023-04-15T06:10:53;5.07;;;0.65;;
75520;SDS011;64102;48.628;9.002;2023-04-15T06:13:18;6.60;;;0.93;;
75520;SDS011;64102;48.628;9.002;2023-04-15T06:15:43;8.75;;;0.68;;
75520;SDS011;64102;48.628;9.002;2023-04-15T06:18:09;6.15;;;0.60;;
75520;SDS011;64102;48.628;9.002;2023-04-15T06:20:35;5.70;;;0.50;;
75520;SDS011;64102;48.628;9.002;2023-04-15T06:23:01;5.80;;;0.57;;
75520;SDS011;64102;48.628;9.002;2023-04-15T06:25:26;7.60;;;0.40;;
75520;SDS011;64102;48.628;9.002;2023-04-15T06:27:51;4.67;;;0.50;;
75520;SDS011;64102;48.628;9.002;2023-04-15T06:30:17;6.03;;;0.60;;
75520;SDS011;64102;48.628;9.002;2023-04-15T06:32:42;4.72;;;0.35;;
75520;SDS011;64102;48.628;9.002;2023-04-15T06:35:07;6.00;;;0.40;;
75520;SDS011;64102;48.628;9.002;2023-04-15T06:37:33;3.95;;;0.30;;
75520;SDS011;64102;48.628;9.002;2023-04-15T06:39:58;4.50;;;0.40;;
75520;SDS011;64102;48.628;9.002;2023-04-15T06:42:24;9.70;;;0.50;;
75520;SDS011;64102;48.628;9.002;2023-04-15T06:44:49;5.43;;;0.43;;
75520;SDS011;64102;48.628;9.002;2023-04-15T06:47:15;5.15;;;0.40;;
75520;SDS011;64102;48.628;9.002;2023-04-15T06:49:41;5.57;;;0.50;;
75520;SDS011;64102;48.628;9.002;2023-04-15T06:52:07;5.95;;;0.60;;
75520;SDS011;64102;48.628;9.002;2023-04-15T06:54:32;5.90;;;0.45;;
75520;SDS011;64102;48.628;9.002;2023-04-15T06:56:58;6.25;;;0.43;;
75520;SDS011;64102;48.628;9.002;2023-04-15T06:59:24;5.60;;;0.70;;
75520;SDS011;64102;48.628;9.002;2023-04-15T07:01:51;6.85;;;0.60;;
75520;SDS011;64102;48.628;9.002;2023-04-15T07:04:16;5.03;;;0.50;;
75520;SDS011;64102;48.628;9.002;2023-04-15T07:06:42;11.37;;;0.60;;
75520;SDS011;64102;48.628;9.002;2023-04-15T07:09:07;6.60;;;0.70;;
75520;SDS011;64102;48.628;9.002;2023-04-15T07:11:32;5.63;;;0.53;;
75520;SDS011;64102;48.628;9.002;2023-04-15T07:13:58;5.57;;;0.50;;
75520;SDS011;64102;48.628;9.002;2023-04-15T07:16:23;4.93;;;0.40;;
75520;SDS011;64102;48.628;9.002;2023-04-15T07:18:48;5.60;;;0.47;;
75520;SDS011;64102;48.628;9.002;2023-04-15T07:21:14;4.17;;;0.50;;
75520;SDS011;64102;48.628;9.002;2023-04-15T07:23:39;8.37;;;0.60;;
75520;SDS011;64102;48.628;9.002;2023-04-15T07:26:04;6.65;;;0.80;;
75520;SDS011;64102;48.628;9.002;2023-04-15T07:28:30;5.63;;;0.50;;
75520;SDS011;64102;48.628;9.002;2023-04-15T07:30:55;9.18;;;0.43;;
75520;SDS011;64102;48.628;9.002;2023-04-15T07:33:21;9.05;;;0.30;;
75520;SDS011;64102;48.628;9.002;2023-04-15T07:35:47;6.35;;;0.63;;
75520;SDS011;64102;48.628;9.002;2023-04-15T07:38:12;4.30;;;0.35;;
75520;SDS011;64102;48.628;9.002;2023-04-15T07:40:37;6.28;;;0.40;;
75520;SDS011;64102;48.628;9.002;2023-04-15T07:43:03;7.43;;;0.80;;
75520;SDS011;64102;48.628;9.002;2023-04-15T07:45:29;6.05;;;0.93;;
75520;SDS011;64102;48.628;9.002;2023-04-15T07:47:55;10.73;;;1.60;;
75520;SDS011;64102;48.628;9.002;2023-04-15T07:50:21;7.45;;;0.90;;
75520;SDS011;64102;48.628;9.002;2023-04-15T07:52:47;5.00;;;0.60;;
75520;SDS011;64102;48.628;9.002;2023-04-15T07:55:13;6.15;;;0.73;;
75520;SDS011;64102;48.628;9.002;2023-04-15T07:57:40;7.15;;;0.70;;
75520;SDS011;64102;48.628;9.002;2023-04-15T08:00:06;3.63;;;0.20;;
75520;SDS011;64102;48.628;9.002;2023-04-15T08:02:32;3.80;;;0.50;;
75520;SDS011;64102;48.628;9.002;2023-04-15T08:04:57;5.32;;;0.40;;
75520;SDS011;64102;48.628;9.002;2023-04-15T08:07:23;5.50;;;0.60;;
75520;SDS011;64102;48.628;9.002;2023-04-15T08:09:49;3.45;;;0.38;;
75520;SDS011;64102;48.628;9.002;2023-04-15T08:12:15;3.47;;;0.40;;
75520;SDS011;64102;48.628;9.002;2023-04-15T08:14:40;3.83;;;0.60;;
75520;SDS011;64102;48.628;9.002;2023-04-15T08:17:06;5.32;;;0.50;;
75520;SDS011;64102;48.628;9.002;2023-04-15T08:19:31;4.20;;;0.20;;
75520;SDS011;64102;48.628;9.002;2023-04-15T08:21:56;4.67;;;0.20;;
75520;SDS011;64102;48.628;9.002;2023-04-15T08:24:23;3.85;;;0.28;;
75520;SDS011;64102;48.628;9.002;2023-04-15T08:26:50;2.63;;;0.20;;
75520;SDS011;64102;48.628;9.002;2023-04-15T08:29:15;5.80;;;0.20;;
75520;SDS011;64102;48.628;9.002;2023-04-15T08:31:41;3.97;;;0.20;;
75520;SDS011;64102;48.628;9.002;2023-04-15T08:34:06;3.50;;;0.20;;
75520;SDS011;64102;48.628;9.002;2023-04-15T08:36:32;2.60;;;0.20;;
75520;SDS011;64102;48.628;9.002;2023-04-15T08:38:57;4.03;;;0.28;;
75520;SDS011;64102;48.628;9.002;2023-04-15T08:41:25;2.75;;;0.28;;
75520;SDS011;64102;48.628;9.002;2023-04-15T08:43:58;3.45;;;0.20;;
75520;SDS011;64102;48.628;9.002;2023-04-15T08:46:27;4.22;;;0.20;;
75520;SDS011;64102;48.628;9.002;2023-04-15T08:49:02;5.10;;;0.28;;
75520;SDS011;64102;48.628;9.002;2023-04-15T08:51:29;3.15;;;0.10;;
75520;SDS011;64102;48.628;9.002;2023-04-15T08:53:54;4.22;;;0.15;;
75520;SDS011;64102;48.628;9.002;2023-04-15T08:56:22;5.93;;;0.40;;
75520;SDS011;64102;48.628;9.002;2023-04-15T08:58:49;3.55;;;0.20;;
75520;SDS011;64102;48.628;9.002;2023-04-15T09:01:15;3.67;;;0.20;;
75520;SDS011;64102;48.628;9.002;2023-04-15T09:03:41;4.75;;;0.17;;
75520;SDS011;64102;48.628;9.002;2023-04-15T09:06:08;2.42;;;0.17;;
75520;SDS011;64102;48.628;9.002;2023-04-15T09:08:33;3.78;;;0.20;;
75520;SDS011;64102;48.628;9.002;2023-04-15T09:11:04;3.67;;;0.20;;
75520;SDS011;64102;48.628;9.002;2023-04-15T09:13:30;2.47;;;0.30;;
75520;SDS011;64102;48.628;9.002;2023-04-15T09:15:56;3.00;;;0.10;;
75520;SDS011;64102;48.628;9.002;2023-04-15T09:21:04;3.20;;;0.30;;
75520;SDS011;64102;48.628;9.002;2023-04-15T09:23:35;3.83;;;0.20;;
75520;SDS011;64102;48.628;9.002;2023-04-15T09:26:01;3.47;;;0.17;;
75520;SDS011;64102;48.628;9.002;2023-04-15T09:28:28;4.55;;;0.30;;
75520;SDS011;64102;48.628;9.002;2023-04-15T09:30:57;3.33;;;0.20;;
75520;SDS011;64102;48.628;9.002;2023-04-15T09:33:24;3.60;;;0.20;;
75520;SDS011;64102;48.628;9.002;2023-04-15T09:36:04;2.25;;;0.20;;
75520;SDS011;64102;48.628;9.002;2023-04-15T09:38:30;3.70;;;0.43;;
75520;SDS011;64102;48.628;9.002;2023-04-15T09:40:56;4.70;;;0.20;;
75520;SDS011;64102;48.628;9.002;2023-04-15T09:43:35;3.22;;;0.17;;
75520;SDS011;64102;48.628;9.002;2023-04-15T09:46:02;2.20;;;0.10;;
75520;SDS011;64102;48.628;9.002;2023-04-15T09:48:28;1.98;;;0.10;;
75520;SDS011;64102;48.628;9.002;2023-04-15T09:50:58;2.20;;;0.10;;
75520;SDS011;64102;48.628;9.002;2023-04-15T09:55:52;4.20;;;0.10;;
75520;SDS011;64102;48.628;9.002;2023-04-15T09:58:25;3.05;;;0.10;;
75520;SDS011;64102;48.628;9.002;2023-04-15T10:00:52;3.13;;;0.17;;
75520;SDS011;64102;48.628;9.002;2023-04-15T10:03:20;2.15;;;0.13;;
75520;SDS011;64102;48.628;9.002;2023-04-15T10:05:48;3.33;;;0.10;;
75520;SDS011;64102;48.628;9.002;2023-04-15T10:08:19;3.63;;;0.20;;
75520;SDS011;64102;48.628;9.002;2023-04-15T10:10:46;3.95;;;0.17;;
75520;SDS011;64102;48.628;9.002;2023-04-15T10:13:16;3.05;;;0.10;;
75520;SDS011;64102;48.628;9.002;2023-04-15T10:15:43;3.55;;;0.10;;
75520;SDS011;64102;48.628;9.002;2023-04-15T10:18:11;5.13;;;0.30;;
75520;SDS011;64102;48.628;9.002;2023-04-15T10:20:41;2.90;;;0.17;;
75520;SDS011;64102;48.628;9.002;2023-04-15T10:23:07;2.78;;;0.10;;
75520;SDS011;64102;48.628;9.002;2023-04-15T10:25:33;4.07;;;0.20;;
75520;SDS011;64102;48.628;9.002;2023-04-15T10:28:00;2.58;;;0.20;;
75520;SDS011;64102;48.628;9.002;2023-04-15T10:30:26;3.83;;;0.20;;
75520;SDS011;64102;48.628;9.002;2023-04-15T10:32:52;3.08;;;0.22;;
75520;SDS011;64102;48.628;9.002;2023-04-15T10:35:19;4.88;;;0.35;;
75520;SDS011;64102;48.628;9.002;2023-04-15T10:37:46;4.38;;;0.40;;
75520;SDS011;64102;48.628;9.002;2023-04-15T10:40:28;2.57;;;0.10;;
75520;SDS011;64102;48.628;9.002;2023-04-15T10:42:55;4.43;;;0.20;;
75520;SDS011;64102;48.628;9.002;2023-04-15T10:45:34;4.22;;;0.20;;
75520;SDS011;64102;48.628;9.002;2023-04-15T10:48:02;2.60;;;0.20;;
75520;SDS011;64102;48.628;9.002;2023-04-15T10:50:31;3.22;;;0.20;;
75520;SDS011;64102;48.628;9.002;2023-04-15T10:52:57;2.38;;;0.20;;
75520;SDS011;64102;48.628;9.002;2023-04-15T10:55:24;5.00;;;0.20;;
75520;SDS011;64102;48.628;9.002;2023-04-15T10:57:55;2.15;;;0.10;;
75520;SDS011;64102;48.628;9.002;2023-04-15T11:00:25;2.38;;;0.10;;
75520;SDS011;64102;48.628;9.002;2023-04-15T11:02:54;1.90;;;0.10;;
75520;SDS011;64102;48.628;9.002;2023-04-15T11:06:06;2.13;;;0.13;;
75520;SDS011;64102;48.628;9.002;2023-04-15T11:08:07;2.97;;;0.20;;
75520;SDS011;64102;48.628;9.002;2023-04-15T11:13:00;2.08;;;0.22;;
75520;SDS011;64102;48.628;9.002;2023-04-15T11:20:46;4.05;;;0.32;;
75520;SDS011;64102;48.628;9.002;2023-04-15T11:23:34;2.70;;;0.20;;
75520;SDS011;64102;48.628;9.002;2023-04-15T11:26:03;4.05;;;0.40;;
75520;SDS011;64102;48.628;9.002;2023-04-15T11:28:33;3.95;;;0.20;;
75520;SDS011;64102;48.628;9.002;2023-04-15T11:31:04;3.97;;;0.20;;
75520;SDS011;64102;48.628;9.002;2023-04-15T11:33:35;3.35;;;0.10;;
75520;SDS011;64102;48.628;9.002;2023-04-15T11:36:01;5.32;;;0.40;;
75520;SDS011;64102;48.628;9.002;2023-04-15T11:38:27;5.60;;;0.30;;
75520;SDS011;64102;48.628;9.002;2023-04-15T11:40:53;5.68;;;0.40;;
75520;SDS011;64102;48.628;9.002;2023-04-15T11:43:19;6.07;;;0.40;;
75520;SDS011;64102;48.628;9.002;2023-04-15T11:45:47;4.05;;;0.40;;
75520;SDS011;64102;48.628;9.002;2023-04-15T11:48:15;4.30;;;0.30;;
75520;SDS011;64102;48.628;9.002;2023-04-15T11:50:41;3.53;;;0.30;;
75520;SDS011;64102;48.628;9.002;2023-04-15T11:53:07;6.27;;;0.30;;
75520;SDS011;64102;48.628;9.002;2023-04-15T11:55:40;5.60;;;0.30;;
75520;SDS011;64102;48.628;9.002;2023-04-15T12:00:46;4.28;;;0.50;;
75520;SDS011;64102;48.628;9.002;2023-04-15T12:03:27;6.68;;;0.43;;
75520;SDS011;64102;48.628;9.002;2023-04-15T12:08:56;5.85;;;0.40;;
75520;SDS011;64102;48.628;9.002;2023-04-15T12:11:28;5.20;;;0.40;;
75520;SDS011;64102;48.628;9.002;2023-04-15T12:16:50;4.25;;;0.30;;
75520;SDS011;64102;48.628;9.002;2023-04-15T12:21:49;4.97;;;0.30;;
75520;SDS011;64102;48.628;9.002;2023-04-15T12:24:15;5.53;;;0.28;;
75520;SDS011;64102;48.628;9.002;2023-04-15T12:26:46;5.47;;;0.30;;
75520;SDS011;64102;48.628;9.002;2023-04-15T12:29:13;4.82;;;0.40;;
75520;SDS011;64102;48.628;9.002;2023-04-15T12:32:14;4.30;;;0.40;;
75520;SDS011;64102;48.628;9.002;2023-04-15T12:34:52;6.13;;;0.50;;
75520;SDS011;64102;48.628;9.002;2023-04-15T12:37:21;4.18;;;0.30;;
75520;SDS011;64102;48.628;9.002;2023-04-15T12:39:47;4.82;;;0.40;;
75520;SDS011;64102;48.628;9.002;2023-04-15T12:42:13;5.82;;;0.52;;
75520;SDS011;64102;48.628;9.002;2023-04-15T12:44:40;4.68;;;0.50;;
75520;SDS011;64102;48.628;9.002;2023-04-15T12:47:06;5.85;;;0.47;;
75520;SDS011;64102;48.628;9.002;2023-04-15T12:49:32;4.78;;;0.50;;
75520;SDS011;64102;48.628;9.002;2023-04-15T12:51:58;5.95;;;0.50;;
75520;SDS011;64102;48.628;9.002;2023-04-15T12:54:24;5.30;;;0.65;;
75520;SDS011;64102;48.628;9.002;2023-04-15T12:56:51;5.70;;;0.82;;
75520;SDS011;64102;48.628;9.002;2023-04-15T12:59:17;5.03;;;0.55;;
75520;SDS011;64102;48.628;9.002;2023-04-15T13:01:42;4.65;;;0.35;;
75520;SDS011;64102;48.628;9.002;2023-04-15T13:04:08;6.22;;;0.60;;
75520;SDS011;64102;48.628;9.002;2023-04-15T13:06:34;6.75;;;0.52;;
75520;SDS011;64102;48.628;9.002;2023-04-15T13:09:03;5.80;;;0.40;;
75520;SDS011;64102;48.628;9.002;2023-04-15T13:11:28;4.95;;;0.30;;
75520;SDS011;64102;48.628;9.002;2023-04-15T13:13:59;4.63;;;0.47;;
75520;SDS011;64102;48.628;9.002;2023-04-15T13:16:25;6.55;;;0.63;;
75520;SDS011;64102;48.628;9.002;2023-04-15T13:18:51;6.38;;;0.55;;
75520;SDS011;64102;48.628;9.002;2023-04-15T13:21:16;4.97;;;0.40;;
75520;SDS011;64102;48.628;9.002;2023-04-15T13:23:42;4.60;;;0.50;;
75520;SDS011;64102;48.628;9.002;2023-04-15T13:26:07;8.50;;;1.05;;
75520;SDS011;64102;48.628;9.002;2023-04-15T13:28:33;4.60;;;0.40;;
75520;SDS011;64102;48.628;9.002;2023-04-15T13:30:58;7.47;;;0.82;;
75520;SDS011;64102;48.628;9.002;2023-04-15T13:33:24;6.30;;;0.50;;
75520;SDS011;64102;48.628;9.002;2023-04-15T13:35:50;6.03;;;0.50;;
75520;SDS011;64102;48.628;9.002;2023-04-15T13:38:15;4.60;;;0.40;;
75520;SDS011;64102;48.628;9.002;2023-04-15T13:40:41;4.65;;;0.30;;
75520;SDS011;64102;48.628;9.002;2023-04-15T13:43:06;4.68;;;0.40;;
75520;SDS011;64102;48.628;9.002;2023-04-15T13:45:32;4.43;;;0.30;;
75520;SDS011;64102;48.628;9.002;2023-04-15T13:47:57;6.80;;;0.45;;
75520;SDS011;64102;48.628;9.002;2023-04-15T13:50:23;5.60;;;0.43;;
75520;SDS011;64102;48.628;9.002;2023-04-15T13:52:48;4.93;;;0.50;;
75520;SDS011;64102;48.628;9.002;2023-04-15T13:55:14;5.70;;;0.85;;
75520;SDS011;64102;48.628;9.002;2023-04-15T13:57:39;6.93;;;0.70;;
75520;SDS011;64102;48.628;9.002;2023-04-15T14:00:05;5.75;;;0.60;;
75520;SDS011;64102;48.628;9.002;2023-04-15T14:02:31;4.15;;;0.40;;
75520;SDS011;64102;48.628;9.002;2023-04-15T14:04:57;5.00;;;0.38;;
75520;SDS011;64102;48.628;9.002;2023-04-15T14:07:22;4.37;;;0.20;;
75520;SDS011;64102;48.628;9.002;2023-04-15T14:09:48;7.35;;;0.60;;
75520;SDS011;64102;48.628;9.002;2023-04-15T14:12:13;4.75;;;0.40;;
75520;SDS011;64102;48.628;9.002;2023-04-15T14:14:39;5.63;;;0.30;;
75520;SDS011;64102;48.628;9.002;2023-04-15T14:17:05;3.78;;;0.20;;
75520;SDS011;64102;48.628;9.002;2023-04-15T14:19:31;3.45;;;0.30;;
75520;SDS011;64102;48.628;9.002;2023-04-15T14:21:57;3.90;;;0.30;;
75520;SDS011;64102;48.628;9.002;2023-04-15T14:24:23;3.72;;;0.35;;
75520;SDS011;64102;48.628;9.002;2023-04-15T14:26:48;4.60;;;0.30;;
75520;SDS011;64102;48.628;9.002;2023-04-15T14:29:13;4.20;;;0.28;;
75520;SDS011;64102;48.628;9.002;2023-04-15T14:31:39;2.25;;;0.13;;
75520;SDS011;64102;48.628;9.002;2023-04-15T14:34:04;5.80;;;0.30;;
75520;SDS011;64102;48.628;9.002;2023-04-15T14:36:30;3.35;;;0.20;;
75520;SDS011;64102;48.628;9.002;2023-04-15T14:38:56;2.95;;;0.10;;
75520;SDS011;64102;48.628;9.002;2023-04-15T14:41:22;0.93;;;0.03;;
75520;SDS011;64102;48.628;9.002;2023-04-15T14:43:47;2.10;;;0.10;;
75520;SDS011;64102;48.628;9.002;2023-04-15T14:46:13;2.70;;;0.13;;
75520;SDS011;64102;48.628;9.002;2023-04-15T14:48:38;3.45;;;0.13;;
75520;SDS011;64102;48.628;9.002;2023-04-15T14:51:04;1.90;;;0.17;;
75520;SDS011;64102;48.628;9.002;2023-04-15T14:53:30;2.88;;;0.15;;
75520;SDS011;64102;48.628;9.002;2023-04-15T14:55:55;2.90;;;0.20;;
75520;SDS011;64102;48.628;9.002;2023-04-15T14:58:20;2.57;;;0.10;;
75520;SDS011;64102;48.628;9.002;2023-04-15T15:00:46;3.67;;;0.20;;
75520;SDS011;64102;48.628;9.002;2023-04-15T15:03:12;3.70;;;0.17;;
75520;SDS011;64102;48.628;9.002;2023-04-15T15:05:38;5.25;;;0.20;;
75520;SDS011;64102;48.628;9.002;2023-04-15T15:08:08;4.20;;;0.40;;